sensor_id;sensor_type;location;lat;lon;timestamp;P1;durP1;ratioP1;P2;durP2;ratioP2
11839;SDS011;5979;50.800;4.904;2024-02-28T00:00:25;41.07;;;22.50;;
11839;SDS011;5979;50.800;4.904;2024-02-28T00:02:50;38.22;;;23.70;;
11839;SDS011;5979;50.800;4.904;2024-02-28T00:05:16;39.33;;;24.27;;
11839;SDS011;5979;50.800;4.904;2024-02-28T00:07:42;41.88;;;25.10;;
11839;SDS011;5979;50.800;4.904;2024-02-28T00:10:08;42.20;;;23.57;;
11839;SDS011;5979;50.800;4.904;2024-02-28T00:12:33;37.03;;;23.63;;
11839;SDS011;5979;50.800;4.904;2024-02-28T00:14:59;38.17;;;22.77;;
11839;SDS011;5979;50.800;4.904;2024-02-28T00:17:25;33.80;;;21.50;;
11839;SDS011;5979;50.800;4.904;2024-02-28T00:19:51;32.70;;;21.35;;
11839;SDS011;5979;50.800;4.904;2024-02-28T00:22:17;33.70;;;21.00;;
11839;SDS011;5979;50.800;4.904;2024-02-28T00:24:42;34.67;;;21.77;;
11839;SDS011;5979;50.800;4.904;2024-02-28T00:27:08;32.75;;;19.98;;
11839;SDS011;5979;50.800;4.904;2024-02-28T00:29:34;32.13;;;19.67;;
11839;SDS011;5979;50.800;4.904;2024-02-28T00:31:59;31.23;;;20.97;;
11839;SDS011;5979;50.800;4.904;2024-02-28T00:34:25;28.73;;;18.90;;
11839;SDS011;5979;50.800;4.904;2024-02-28T00:36:51;29.85;;;19.52;;
11839;SDS011;5979;50.800;4.904;2024-02-28T00:39:16;27.55;;;17.23;;
11839;SDS011;5979;50.800;4.904;2024-02-28T00:41:42;25.77;;;17.08;;
11839;SDS011;5979;50.800;4.904;2024-02-28T00:44:08;26.43;;;17.83;;
11839;SDS011;5979;50.800;4.904;2024-02-28T00:46:34;26.70;;;17.70;;
11839;SDS011;5979;50.800;4.904;2024-02-28T00:48:59;28.33;;;18.77;;
11839;SDS011;5979;50.800;4.904;2024-02-28T00:51:25;30.47;;;18.73;;
11839;SDS011;5979;50.800;4.904;2024-02-28T00:53:51;25.90;;;17.08;;
11839;SDS011;5979;50.800;4.904;2024-02-28T00:56:16;25.75;;;17.08;;
11839;SDS011;5979;50.800;4.904;2024-02-28T00:58:43;26.63;;;17.70;;
11839;SDS011;5979;50.800;4.904;2024-02-28T01:01:09;25.17;;;16.60;;
11839;SDS011;5979;50.800;4.904;2024-02-28T01:03:35;29.33;;;19.03;;
11839;SDS011;5979;50.800;4.904;2024-02-28T01:06:02;24.50;;;17.33;;
11839;SDS011;5979;50.800;4.904;2024-02-28T01:08:29;27.60;;;18.37;;
11839;SDS011;5979;50.800;4.904;2024-02-28T01:10:54;29.33;;;18.47;;
11839;SDS011;5979;50.800;4.904;2024-02-28T01:13:20;30.83;;;18.67;;
11839;SDS011;5979;50.800;4.904;2024-02-28T01:15:46;32.30;;;20.23;;
11839;SDS011;5979;50.800;4.904;2024-02-28T01:18:12;30.53;;;19.17;;
11839;SDS011;5979;50.800;4.904;2024-02-28T01:20:37;29.90;;;19.50;;
11839;SDS011;5979;50.800;4.904;2024-02-28T01:23:03;31.40;;;19.67;;
11839;SDS011;5979;50.800;4.904;2024-02-28T01:25:29;30.97;;;19.77;;
11839;SDS011;5979;50.800;4.904;2024-02-28T01:27:55;34.43;;;21.33;;
11839;SDS011;5979;50.800;4.904;2024-02-28T01:30:23;27.67;;;19.40;;
11839;SDS011;5979;50.800;4.904;2024-02-28T01:32:49;30.00;;;20.17;;
11839;SDS011;5979;50.800;4.904;2024-02-28T01:35:14;32.73;;;19.93;;
11839;SDS011;5979;50.800;4.904;2024-02-28T01:37:40;33.20;;;20.70;;
11839;SDS011;5979;50.800;4.904;2024-02-28T01:40:06;31.43;;;20.70;;
11839;SDS011;5979;50.800;4.904;2024-02-28T01:42:32;38.17;;;21.63;;
11839;SDS011;5979;50.800;4.904;2024-02-28T01:44:57;31.40;;;20.20;;
11839;SDS011;5979;50.800;4.904;2024-02-28T01:47:23;33.80;;;21.30;;
11839;SDS011;5979;50.800;4.904;2024-02-28T01:49:49;33.30;;;20.83;;
11839;SDS011;5979;50.800;4.904;2024-02-28T01:52:19;33.70;;;21.20;;
11839;SDS011;5979;50.800;4.904;2024-02-28T01:54:45;33.37;;;20.87;;
11839;SDS011;5979;50.800;4.904;2024-02-28T01:57:11;36.27;;;21.03;;
11839;SDS011;5979;50.800;4.904;2024-02-28T01:59:38;39.83;;;22.77;;
11839;SDS011;5979;50.800;4.904;2024-02-28T02:02:04;37.43;;;20.50;;
11839;SDS011;5979;50.800;4.904;2024-02-28T02:04:30;37.07;;;21.37;;
11839;SDS011;5979;50.800;4.904;2024-02-28T02:06:56;41.13;;;23.40;;
11839;SDS011;5979;50.800;4.904;2024-02-28T02:09:24;36.73;;;22.23;;
11839;SDS011;5979;50.800;4.904;2024-02-28T02:11:51;40.13;;;23.63;;
11839;SDS011;5979;50.800;4.904;2024-02-28T02:14:17;41.80;;;23.90;;
11839;SDS011;5979;50.800;4.904;2024-02-28T02:16:42;37.77;;;23.07;;
11839;SDS011;5979;50.800;4.904;2024-02-28T02:19:08;34.53;;;22.07;;
11839;SDS011;5979;50.800;4.904;2024-02-28T02:21:34;38.07;;;22.53;;
11839;SDS011;5979;50.800;4.904;2024-02-28T02:24:06;35.83;;;21.00;;
11839;SDS011;5979;50.800;4.904;2024-02-28T02:26:31;36.47;;;23.23;;
11839;SDS011;5979;50.800;4.904;2024-02-28T02:28:57;37.50;;;22.70;;
11839;SDS011;5979;50.800;4.904;2024-02-28T02:31:23;34.27;;;21.50;;
11839;SDS011;5979;50.800;4.904;2024-02-28T02:33:48;40.00;;;22.13;;
11839;SDS011;5979;50.800;4.904;2024-02-28T02:36:14;31.67;;;20.53;;
11839;SDS011;5979;50.800;4.904;2024-02-28T02:38:39;32.53;;;20.73;;
11839;SDS011;5979;50.800;4.904;2024-02-28T02:41:05;38.83;;;23.27;;
11839;SDS011;5979;50.800;4.904;2024-02-28T02:43:31;37.00;;;23.20;;
11839;SDS011;5979;50.800;4.904;2024-02-28T02:45:56;35.80;;;22.50;;
11839;SDS011;5979;50.800;4.904;2024-02-28T02:48:22;39.70;;;22.87;;
11839;SDS011;5979;50.800;4.904;2024-02-28T02:50:48;35.00;;;22.10;;
11839;SDS011;5979;50.800;4.904;2024-02-28T02:53:13;38.70;;;23.27;;
11839;SDS011;5979;50.800;4.904;2024-02-28T02:55:39;35.37;;;21.47;;
11839;SDS011;5979;50.800;4.904;2024-02-28T02:58:05;35.63;;;22.67;;
11839;SDS011;5979;50.800;4.904;2024-02-28T03:00:30;36.80;;;22.73;;
11839;SDS011;5979;50.800;4.904;2024-02-28T03:02:56;37.53;;;22.37;;
11839;SDS011;5979;50.800;4.904;2024-02-28T03:05:22;28.00;;;19.33;;
11839;SDS011;5979;50.800;4.904;2024-02-28T03:07:47;36.80;;;21.73;;
11839;SDS011;5979;50.800;4.904;2024-02-28T03:10:13;31.33;;;21.83;;
11839;SDS011;5979;50.800;4.904;2024-02-28T03:12:38;36.13;;;22.37;;
11839;SDS011;5979;50.800;4.904;2024-02-28T03:15:04;30.17;;;20.00;;
11839;SDS011;5979;50.800;4.904;2024-02-28T03:17:30;34.33;;;20.93;;
11839;SDS011;5979;50.800;4.904;2024-02-28T03:19:56;32.23;;;20.27;;
11839;SDS011;5979;50.800;4.904;2024-02-28T03:22:22;29.83;;;18.53;;
11839;SDS011;5979;50.800;4.904;2024-02-28T03:24:47;31.70;;;19.50;;
11839;SDS011;5979;50.800;4.904;2024-02-28T03:27:13;32.17;;;19.77;;
11839;SDS011;5979;50.800;4.904;2024-02-28T03:29:39;28.73;;;18.90;;
11839;SDS011;5979;50.800;4.904;2024-02-28T03:32:05;34.23;;;20.60;;
11839;SDS011;5979;50.800;4.904;2024-02-28T03:34:31;33.57;;;20.53;;
11839;SDS011;5979;50.800;4.904;2024-02-28T03:36:57;33.67;;;20.63;;
11839;SDS011;5979;50.800;4.904;2024-02-28T03:39:22;34.47;;;21.13;;
11839;SDS011;5979;50.800;4.904;2024-02-28T03:41:48;32.70;;;21.40;;
11839;SDS011;5979;50.800;4.904;2024-02-28T03:44:14;37.90;;;22.67;;
11839;SDS011;5979;50.800;4.904;2024-02-28T03:46:39;35.17;;;20.77;;
11839;SDS011;5979;50.800;4.904;2024-02-28T03:49:05;37.30;;;23.67;;
11839;SDS011;5979;50.800;4.904;2024-02-28T03:51:31;37.40;;;24.10;;
11839;SDS011;5979;50.800;4.904;2024-02-28T03:53:56;36.17;;;22.90;;
11839;SDS011;5979;50.800;4.904;2024-02-28T03:56:25;33.30;;;22.03;;
11839;SDS011;5979;50.800;4.904;2024-02-28T03:58:51;36.20;;;22.63;;
11839;SDS011;5979;50.800;4.904;2024-02-28T04:01:18;38.03;;;22.37;;
11839;SDS011;5979;50.800;4.904;2024-02-28T04:03:44;38.90;;;24.00;;
11839;SDS011;5979;50.800;4.904;2024-02-28T04:06:12;34.03;;;22.47;;
11839;SDS011;5979;50.800;4.904;2024-02-28T04:08:40;37.33;;;23.07;;
11839;SDS011;5979;50.800;4.904;2024-02-28T04:11:06;35.83;;;23.27;;
11839;SDS011;5979;50.800;4.904;2024-02-28T04:13:31;33.03;;;21.50;;
11839;SDS011;5979;50.800;4.904;2024-02-28T04:15:57;41.63;;;23.97;;
11839;SDS011;5979;50.800;4.904;2024-02-28T04:18:22;37.03;;;23.07;;
11839;SDS011;5979;50.800;4.904;2024-02-28T04:20:48;37.77;;;22.27;;
11839;SDS011;5979;50.800;4.904;2024-02-28T04:23:14;34.17;;;21.80;;
11839;SDS011;5979;50.800;4.904;2024-02-28T04:25:39;33.23;;;21.57;;
11839;SDS011;5979;50.800;4.904;2024-02-28T04:28:06;33.10;;;21.47;;
11839;SDS011;5979;50.800;4.904;2024-02-28T04:30:34;33.83;;;21.93;;
11839;SDS011;5979;50.800;4.904;2024-02-28T04:33:00;34.67;;;21.97;;
11839;SDS011;5979;50.800;4.904;2024-02-28T04:35:25;34.60;;;21.77;;
11839;SDS011;5979;50.800;4.904;2024-02-28T04:37:51;32.20;;;20.13;;
11839;SDS011;5979;50.800;4.904;2024-02-28T04:40:17;32.40;;;20.67;;
11839;SDS011;5979;50.800;4.904;2024-02-28T04:42:43;32.80;;;21.03;;
11839;SDS011;5979;50.800;4.904;2024-02-28T04:45:09;32.33;;;20.60;;
11839;SDS011;5979;50.800;4.904;2024-02-28T04:47:34;32.60;;;21.13;;
11839;SDS011;5979;50.800;4.904;2024-02-28T04:50:01;31.60;;;20.90;;
11839;SDS011;5979;50.800;4.904;2024-02-28T04:52:29;32.10;;;20.87;;
11839;SDS011;5979;50.800;4.904;2024-02-28T04:54:55;34.23;;;22.27;;
11839;SDS011;5979;50.800;4.904;2024-02-28T04:57:21;35.03;;;22.67;;
11839;SDS011;5979;50.800;4.904;2024-02-28T04:59:47;35.20;;;21.93;;
11839;SDS011;5979;50.800;4.904;2024-02-28T05:02:13;31.43;;;20.93;;
11839;SDS011;5979;50.800;4.904;2024-02-28T05:04:38;32.27;;;21.03;;
11839;SDS011;5979;50.800;4.904;2024-02-28T05:07:04;35.50;;;20.77;;
11839;SDS011;5979;50.800;4.904;2024-02-28T05:09:32;34.03;;;21.83;;
11839;SDS011;5979;50.800;4.904;2024-02-28T05:11:58;31.63;;;20.83;;
11839;SDS011;5979;50.800;4.904;2024-02-28T05:14:24;29.97;;;19.93;;
11839;SDS011;5979;50.800;4.904;2024-02-28T05:16:49;30.20;;;20.30;;
11839;SDS011;5979;50.800;4.904;2024-02-28T05:19:15;31.70;;;20.07;;
11839;SDS011;5979;50.800;4.904;2024-02-28T05:21:43;34.07;;;21.70;;
11839;SDS011;5979;50.800;4.904;2024-02-28T05:24:09;26.37;;;18.73;;
11839;SDS011;5979;50.800;4.904;2024-02-28T05:26:35;31.33;;;20.77;;
11839;SDS011;5979;50.800;4.904;2024-02-28T05:29:05;28.07;;;18.47;;
11839;SDS011;5979;50.800;4.904;2024-02-28T05:31:31;32.53;;;20.10;;
11839;SDS011;5979;50.800;4.904;2024-02-28T05:33:58;29.27;;;19.50;;
11839;SDS011;5979;50.800;4.904;2024-02-28T05:36:25;28.77;;;19.50;;
11839;SDS011;5979;50.800;4.904;2024-02-28T05:38:55;30.00;;;19.70;;
11839;SDS011;5979;50.800;4.904;2024-02-28T05:41:21;28.93;;;20.40;;
11839;SDS011;5979;50.800;4.904;2024-02-28T05:43:48;30.17;;;19.93;;
11839;SDS011;5979;50.800;4.904;2024-02-28T05:46:14;28.77;;;19.23;;
11839;SDS011;5979;50.800;4.904;2024-02-28T05:48:42;30.37;;;20.50;;
11839;SDS011;5979;50.800;4.904;2024-02-28T05:51:07;33.80;;;20.20;;
11839;SDS011;5979;50.800;4.904;2024-02-28T05:53:34;29.87;;;21.10;;
11839;SDS011;5979;50.800;4.904;2024-02-28T05:56:03;32.67;;;20.53;;
11839;SDS011;5979;50.800;4.904;2024-02-28T05:58:30;30.40;;;20.00;;
11839;SDS011;5979;50.800;4.904;2024-02-28T06:00:56;32.43;;;20.70;;
11839;SDS011;5979;50.800;4.904;2024-02-28T06:03:22;37.70;;;22.03;;
11839;SDS011;5979;50.800;4.904;2024-02-28T06:05:48;30.23;;;20.30;;
11839;SDS011;5979;50.800;4.904;2024-02-28T06:08:13;29.00;;;19.67;;
11839;SDS011;5979;50.800;4.904;2024-02-28T06:10:39;31.63;;;20.30;;
11839;SDS011;5979;50.800;4.904;2024-02-28T06:13:07;26.47;;;19.03;;
11839;SDS011;5979;50.800;4.904;2024-02-28T06:15:33;26.43;;;17.90;;
11839;SDS011;5979;50.800;4.904;2024-02-28T06:17:59;27.53;;;18.83;;
11839;SDS011;5979;50.800;4.904;2024-02-28T06:20:25;26.67;;;18.77;;
11839;SDS011;5979;50.800;4.904;2024-02-28T06:22:51;27.87;;;18.27;;
11839;SDS011;5979;50.800;4.904;2024-02-28T06:25:17;26.30;;;16.97;;
11839;SDS011;5979;50.800;4.904;2024-02-28T06:27:44;25.33;;;17.87;;
11839;SDS011;5979;50.800;4.904;2024-02-28T06:30:11;26.23;;;18.20;;
11839;SDS011;5979;50.800;4.904;2024-02-28T06:32:40;25.73;;;18.30;;
11839;SDS011;5979;50.800;4.904;2024-02-28T06:35:09;26.87;;;17.60;;
11839;SDS011;5979;50.800;4.904;2024-02-28T06:37:35;24.60;;;16.50;;
11839;SDS011;5979;50.800;4.904;2024-02-28T06:40:00;27.80;;;17.77;;
11839;SDS011;5979;50.800;4.904;2024-02-28T06:42:29;24.20;;;16.83;;
11839;SDS011;5979;50.800;4.904;2024-02-28T06:44:55;25.90;;;16.90;;
11839;SDS011;5979;50.800;4.904;2024-02-28T06:47:20;24.93;;;16.47;;
11839;SDS011;5979;50.800;4.904;2024-02-28T06:49:46;25.00;;;17.40;;
11839;SDS011;5979;50.800;4.904;2024-02-28T06:52:12;23.77;;;16.97;;
11839;SDS011;5979;50.800;4.904;2024-02-28T06:54:38;26.80;;;17.70;;
11839;SDS011;5979;50.800;4.904;2024-02-28T06:57:04;23.97;;;17.23;;
11839;SDS011;5979;50.800;4.904;2024-02-28T06:59:29;24.20;;;16.77;;
11839;SDS011;5979;50.800;4.904;2024-02-28T07:01:55;24.20;;;17.10;;
11839;SDS011;5979;50.800;4.904;2024-02-28T07:04:21;22.77;;;17.40;;
11839;SDS011;5979;50.800;4.904;2024-02-28T07:06:46;25.03;;;17.03;;
11839;SDS011;5979;50.800;4.904;2024-02-28T07:09:12;27.97;;;17.50;;
11839;SDS011;5979;50.800;4.904;2024-02-28T07:11:38;26.47;;;17.40;;
11839;SDS011;5979;50.800;4.904;2024-02-28T07:14:04;24.90;;;17.63;;
11839;SDS011;5979;50.800;4.904;2024-02-28T07:16:30;25.13;;;18.07;;
11839;SDS011;5979;50.800;4.904;2024-02-28T07:18:57;25.40;;;16.47;;
11839;SDS011;5979;50.800;4.904;2024-02-28T07:21:23;27.27;;;17.80;;
11839;SDS011;5979;50.800;4.904;2024-02-28T07:23:48;30.38;;;18.15;;
11839;SDS011;5979;50.800;4.904;2024-02-28T07:26:14;26.98;;;17.15;;
11839;SDS011;5979;50.800;4.904;2024-02-28T07:28:41;25.73;;;17.40;;
11839;SDS011;5979;50.800;4.904;2024-02-28T07:31:07;27.98;;;17.55;;
11839;SDS011;5979;50.800;4.904;2024-02-28T07:33:39;29.52;;;17.83;;
11839;SDS011;5979;50.800;4.904;2024-02-28T07:36:05;26.52;;;16.75;;
11839;SDS011;5979;50.800;4.904;2024-02-28T07:38:31;25.92;;;16.98;;
11839;SDS011;5979;50.800;4.904;2024-02-28T07:40:57;24.65;;;18.00;;
11839;SDS011;5979;50.800;4.904;2024-02-28T07:43:23;25.38;;;16.90;;
11839;SDS011;5979;50.800;4.904;2024-02-28T07:45:49;28.83;;;18.33;;
11839;SDS011;5979;50.800;4.904;2024-02-28T07:48:14;23.80;;;17.23;;
11839;SDS011;5979;50.800;4.904;2024-02-28T07:50:42;27.58;;;18.00;;
11839;SDS011;5979;50.800;4.904;2024-02-28T07:53:12;27.50;;;16.02;;
11839;SDS011;5979;50.800;4.904;2024-02-28T07:55:38;26.95;;;17.80;;
11839;SDS011;5979;50.800;4.904;2024-02-28T07:58:04;27.35;;;16.88;;
11839;SDS011;5979;50.800;4.904;2024-02-28T08:00:31;25.92;;;15.82;;
11839;SDS011;5979;50.800;4.904;2024-02-28T08:02:58;26.13;;;16.55;;
11839;SDS011;5979;50.800;4.904;2024-02-28T08:05:24;25.60;;;15.55;;
11839;SDS011;5979;50.800;4.904;2024-02-28T08:07:50;26.65;;;16.67;;
11839;SDS011;5979;50.800;4.904;2024-02-28T08:10:15;22.98;;;16.30;;
11839;SDS011;5979;50.800;4.904;2024-02-28T08:12:41;25.77;;;17.02;;
11839;SDS011;5979;50.800;4.904;2024-02-28T08:15:07;24.90;;;17.02;;
11839;SDS011;5979;50.800;4.904;2024-02-28T08:17:33;23.77;;;16.70;;
11839;SDS011;5979;50.800;4.904;2024-02-28T08:19:59;24.33;;;16.17;;
11839;SDS011;5979;50.800;4.904;2024-02-28T08:22:25;26.63;;;15.30;;
11839;SDS011;5979;50.800;4.904;2024-02-28T08:24:51;20.02;;;13.73;;
11839;SDS011;5979;50.800;4.904;2024-02-28T08:27:17;19.00;;;14.82;;
11839;SDS011;5979;50.800;4.904;2024-02-28T08:29:42;21.90;;;14.30;;
11839;SDS011;5979;50.800;4.904;2024-02-28T08:32:12;23.83;;;14.45;;
11839;SDS011;5979;50.800;4.904;2024-02-28T08:34:38;22.63;;;14.48;;
11839;SDS011;5979;50.800;4.904;2024-02-28T08:37:04;20.38;;;14.07;;
11839;SDS011;5979;50.800;4.904;2024-02-28T08:39:29;20.98;;;13.20;;
11839;SDS011;5979;50.800;4.904;2024-02-28T08:41:55;24.23;;;14.15;;
11839;SDS011;5979;50.800;4.904;2024-02-28T08:44:21;24.55;;;15.68;;
11839;SDS011;5979;50.800;4.904;2024-02-28T08:46:47;21.65;;;14.48;;
11839;SDS011;5979;50.800;4.904;2024-02-28T08:49:13;22.38;;;14.15;;
11839;SDS011;5979;50.800;4.904;2024-02-28T08:51:39;23.33;;;14.48;;
11839;SDS011;5979;50.800;4.904;2024-02-28T08:54:05;22.63;;;14.05;;
11839;SDS011;5979;50.800;4.904;2024-02-28T08:56:31;20.35;;;13.82;;
11839;SDS011;5979;50.800;4.904;2024-02-28T08:58:58;21.48;;;14.43;;
11839;SDS011;5979;50.800;4.904;2024-02-28T09:01:24;17.85;;;13.13;;
11839;SDS011;5979;50.800;4.904;2024-02-28T09:03:49;21.02;;;14.05;;
11839;SDS011;5979;50.800;4.904;2024-02-28T09:06:15;20.67;;;14.05;;
11839;SDS011;5979;50.800;4.904;2024-02-28T09:08:41;16.67;;;12.50;;
11839;SDS011;5979;50.800;4.904;2024-02-28T09:11:07;20.75;;;12.60;;
11839;SDS011;5979;50.800;4.904;2024-02-28T09:13:33;23.45;;;14.38;;
11839;SDS011;5979;50.800;4.904;2024-02-28T09:16:00;17.67;;;12.13;;
11839;SDS011;5979;50.800;4.904;2024-02-28T09:18:26;21.70;;;12.40;;
11839;SDS011;5979;50.800;4.904;2024-02-28T09:20:52;19.40;;;12.75;;
11839;SDS011;5979;50.800;4.904;2024-02-28T09:23:17;22.17;;;13.07;;
11839;SDS011;5979;50.800;4.904;2024-02-28T09:25:43;15.98;;;11.68;;
11839;SDS011;5979;50.800;4.904;2024-02-28T09:28:09;21.30;;;13.38;;
11839;SDS011;5979;50.800;4.904;2024-02-28T09:30:37;17.00;;;12.55;;
11839;SDS011;5979;50.800;4.904;2024-02-28T09:33:03;17.95;;;11.82;;
11839;SDS011;5979;50.800;4.904;2024-02-28T09:35:29;20.23;;;12.05;;
11839;SDS011;5979;50.800;4.904;2024-02-28T09:37:55;16.55;;;11.43;;
11839;SDS011;5979;50.800;4.904;2024-02-28T09:40:21;16.98;;;11.82;;
11839;SDS011;5979;50.800;4.904;2024-02-28T09:42:51;14.13;;;10.30;;
11839;SDS011;5979;50.800;4.904;2024-02-28T09:45:20;12.68;;;10.57;;
11839;SDS011;5979;50.800;4.904;2024-02-28T09:47:47;16.45;;;11.38;;
11839;SDS011;5979;50.800;4.904;2024-02-28T09:50:13;15.77;;;11.45;;
11839;SDS011;5979;50.800;4.904;2024-02-28T09:52:39;13.68;;;10.52;;
11839;SDS011;5979;50.800;4.904;2024-02-28T09:55:05;17.63;;;10.95;;
11839;SDS011;5979;50.800;4.904;2024-02-28T09:57:31;16.08;;;11.05;;
11839;SDS011;5979;50.800;4.904;2024-02-28T09:59:59;15.20;;;10.25;;
11839;SDS011;5979;50.800;4.904;2024-02-28T10:02:26;14.52;;;10.25;;
11839;SDS011;5979;50.800;4.904;2024-02-28T10:04:53;15.68;;;11.18;;
11839;SDS011;5979;50.800;4.904;2024-02-28T10:07:20;16.20;;;10.85;;
11839;SDS011;5979;50.800;4.904;2024-02-28T10:09:47;14.63;;;10.18;;
11839;SDS011;5979;50.800;4.904;2024-02-28T10:12:12;13.45;;;10.20;;
11839;SDS011;5979;50.800;4.904;2024-02-28T10:14:38;13.63;;;9.55;;
11839;SDS011;5979;50.800;4.904;2024-02-28T10:17:04;12.98;;;9.98;;
11839;SDS011;5979;50.800;4.904;2024-02-28T10:19:31;15.10;;;10.57;;
11839;SDS011;5979;50.800;4.904;2024-02-28T10:21:56;16.27;;;11.40;;
11839;SDS011;5979;50.800;4.904;2024-02-28T10:24:25;13.13;;;9.90;;
11839;SDS011;5979;50.800;4.904;2024-02-28T10:26:51;15.40;;;10.68;;
11839;SDS011;5979;50.800;4.904;2024-02-28T10:29:23;13.10;;;10.25;;
11839;SDS011;5979;50.800;4.904;2024-02-28T10:31:50;17.55;;;11.15;;
11839;SDS011;5979;50.800;4.904;2024-02-28T10:34:16;14.95;;;10.70;;
11839;SDS011;5979;50.800;4.904;2024-02-28T10:36:43;15.07;;;10.57;;
11839;SDS011;5979;50.800;4.904;2024-02-28T10:39:10;14.93;;;9.98;;
11839;SDS011;5979;50.800;4.904;2024-02-28T10:41:40;13.40;;;10.07;;
11839;SDS011;5979;50.800;4.904;2024-02-28T10:44:06;13.45;;;10.23;;
11839;SDS011;5979;50.800;4.904;2024-02-28T10:46:33;14.82;;;10.50;;
11839;SDS011;5979;50.800;4.904;2024-02-28T10:48:59;14.43;;;10.38;;
11839;SDS011;5979;50.800;4.904;2024-02-28T10:51:25;12.15;;;9.48;;
11839;SDS011;5979;50.800;4.904;2024-02-28T10:54:10;12.55;;;10.50;;
11839;SDS011;5979;50.800;4.904;2024-02-28T10:56:37;11.35;;;8.93;;
11839;SDS011;5979;50.800;4.904;2024-02-28T10:59:07;13.40;;;9.68;;
11839;SDS011;5979;50.800;4.904;2024-02-28T11:01:43;12.38;;;9.57;;
11839;SDS011;5979;50.800;4.904;2024-02-28T11:04:10;11.32;;;9.25;;
11839;SDS011;5979;50.800;4.904;2024-02-28T11:06:46;10.10;;;8.88;;
11839;SDS011;5979;50.800;4.904;2024-02-28T11:09:19;13.90;;;9.25;;
11839;SDS011;5979;50.800;4.904;2024-02-28T11:11:57;10.45;;;8.73;;
11839;SDS011;5979;50.800;4.904;2024-02-28T11:14:23;9.77;;;8.68;;
11839;SDS011;5979;50.800;4.904;2024-02-28T11:17:03;10.40;;;9.15;;
11839;SDS011;5979;50.800;4.904;2024-02-28T11:19:30;10.18;;;8.07;;
11839;SDS011;5979;50.800;4.904;2024-02-28T11:21:58;11.73;;;8.77;;
11839;SDS011;5979;50.800;4.904;2024-02-28T11:24:34;9.85;;;8.23;;
11839;SDS011;5979;50.800;4.904;2024-02-28T11:27:01;13.63;;;8.60;;
11839;SDS011;5979;50.800;4.904;2024-02-28T11:29:28;12.07;;;8.50;;
11839;SDS011;5979;50.800;4.904;2024-02-28T11:31:54;12.65;;;8.65;;
11839;SDS011;5979;50.800;4.904;2024-02-28T11:34:20;11.32;;;8.15;;
11839;SDS011;5979;50.800;4.904;2024-02-28T11:36:49;11.18;;;8.10;;
11839;SDS011;5979;50.800;4.904;2024-02-28T11:39:16;7.63;;;6.82;;
11839;SDS011;5979;50.800;4.904;2024-02-28T11:41:43;10.13;;;7.28;;
11839;SDS011;5979;50.800;4.904;2024-02-28T11:44:11;7.78;;;6.80;;
11839;SDS011;5979;50.800;4.904;2024-02-28T11:46:38;10.35;;;6.97;;
11839;SDS011;5979;50.800;4.904;2024-02-28T11:49:07;9.57;;;7.45;;
11839;SDS011;5979;50.800;4.904;2024-02-28T11:51:33;8.63;;;7.38;;
11839;SDS011;5979;50.800;4.904;2024-02-28T11:54:00;8.60;;;7.55;;
11839;SDS011;5979;50.800;4.904;2024-02-28T11:56:27;9.90;;;7.35;;
11839;SDS011;5979;50.800;4.904;2024-02-28T11:58:53;12.60;;;7.40;;
11839;SDS011;5979;50.800;4.904;2024-02-28T12:04:05;11.40;;;6.93;;
11839;SDS011;5979;50.800;4.904;2024-02-28T12:06:32;9.30;;;7.15;;
11839;SDS011;5979;50.800;4.904;2024-02-28T12:08:59;10.25;;;6.10;;
11839;SDS011;5979;50.800;4.904;2024-02-28T12:11:25;9.25;;;6.70;;
11839;SDS011;5979;50.800;4.904;2024-02-28T12:13:53;7.95;;;6.07;;
11839;SDS011;5979;50.800;4.904;2024-02-28T12:16:26;8.30;;;6.50;;
11839;SDS011;5979;50.800;4.904;2024-02-28T12:18:52;7.70;;;6.35;;
11839;SDS011;5979;50.800;4.904;2024-02-28T12:21:19;11.10;;;6.43;;
11839;SDS011;5979;50.800;4.904;2024-02-28T12:23:46;9.75;;;6.30;;
11839;SDS011;5979;50.800;4.904;2024-02-28T12:26:13;6.95;;;6.03;;
11839;SDS011;5979;50.800;4.904;2024-02-28T12:28:39;9.23;;;5.70;;
11839;SDS011;5979;50.800;4.904;2024-02-28T12:31:05;7.10;;;5.57;;
11839;SDS011;5979;50.800;4.904;2024-02-28T12:33:35;8.73;;;5.90;;
11839;SDS011;5979;50.800;4.904;2024-02-28T12:36:00;7.30;;;5.65;;
11839;SDS011;5979;50.800;4.904;2024-02-28T12:38:28;7.88;;;5.00;;
11839;SDS011;5979;50.800;4.904;2024-02-28T12:40:54;6.25;;;5.25;;
11839;SDS011;5979;50.800;4.904;2024-02-28T12:43:20;6.50;;;5.15;;
11839;SDS011;5979;50.800;4.904;2024-02-28T12:45:45;6.57;;;5.13;;
11839;SDS011;5979;50.800;4.904;2024-02-28T12:48:11;5.68;;;4.78;;
11839;SDS011;5979;50.800;4.904;2024-02-28T12:50:37;5.65;;;4.68;;
11839;SDS011;5979;50.800;4.904;2024-02-28T12:53:02;5.03;;;4.53;;
11839;SDS011;5979;50.800;4.904;2024-02-28T12:55:28;5.63;;;4.43;;
11839;SDS011;5979;50.800;4.904;2024-02-28T12:57:54;4.10;;;3.65;;
11839;SDS011;5979;50.800;4.904;2024-02-28T13:00:20;4.93;;;4.10;;
11839;SDS011;5979;50.800;4.904;2024-02-28T13:02:46;5.68;;;4.82;;
11839;SDS011;5979;50.800;4.904;2024-02-28T13:05:12;5.28;;;4.40;;
11839;SDS011;5979;50.800;4.904;2024-02-28T13:07:38;5.18;;;4.32;;
11839;SDS011;5979;50.800;4.904;2024-02-28T13:10:05;5.47;;;4.63;;
11839;SDS011;5979;50.800;4.904;2024-02-28T13:12:31;5.18;;;4.72;;
11839;SDS011;5979;50.800;4.904;2024-02-28T13:14:57;5.22;;;4.72;;
11839;SDS011;5979;50.800;4.904;2024-02-28T13:17:24;6.20;;;4.65;;
11839;SDS011;5979;50.800;4.904;2024-02-28T13:19:49;5.75;;;5.15;;
11839;SDS011;5979;50.800;4.904;2024-02-28T13:22:16;5.10;;;4.60;;
11839;SDS011;5979;50.800;4.904;2024-02-28T13:24:41;6.80;;;5.07;;
11839;SDS011;5979;50.800;4.904;2024-02-28T13:27:07;4.93;;;4.53;;
11839;SDS011;5979;50.800;4.904;2024-02-28T13:29:34;4.88;;;4.47;;
11839;SDS011;5979;50.800;4.904;2024-02-28T13:32:00;5.20;;;4.80;;
11839;SDS011;5979;50.800;4.904;2024-02-28T13:34:26;7.15;;;5.22;;
11839;SDS011;5979;50.800;4.904;2024-02-28T13:36:52;5.07;;;4.68;;
11839;SDS011;5979;50.800;4.904;2024-02-28T13:39:18;4.72;;;4.40;;
11839;SDS011;5979;50.800;4.904;2024-02-28T13:41:43;4.38;;;3.97;;
11839;SDS011;5979;50.800;4.904;2024-02-28T13:44:10;4.55;;;3.75;;
11839;SDS011;5979;50.800;4.904;2024-02-28T13:46:35;3.60;;;3.30;;
11839;SDS011;5979;50.800;4.904;2024-02-28T13:49:02;2.90;;;2.80;;
11839;SDS011;5979;50.800;4.904;2024-02-28T13:51:29;3.65;;;3.35;;
11839;SDS011;5979;50.800;4.904;2024-02-28T13:53:55;3.65;;;3.35;;
11839;SDS011;5979;50.800;4.904;2024-02-28T13:56:20;3.50;;;3.20;;
11839;SDS011;5979;50.800;4.904;2024-02-28T13:58:46;3.70;;;3.50;;
11839;SDS011;5979;50.800;4.904;2024-02-28T14:01:12;4.72;;;3.65;;
11839;SDS011;5979;50.800;4.904;2024-02-28T14:03:38;3.88;;;3.58;;
11839;SDS011;5979;50.800;4.904;2024-02-28T14:06:04;4.13;;;3.42;;
11839;SDS011;5979;50.800;4.904;2024-02-28T14:08:29;6.07;;;3.45;;
11839;SDS011;5979;50.800;4.904;2024-02-28T14:10:56;4.25;;;3.22;;
11839;SDS011;5979;50.800;4.904;2024-02-28T14:13:23;4.38;;;3.55;;
11839;SDS011;5979;50.800;4.904;2024-02-28T14:15:50;3.35;;;2.97;;
11839;SDS011;5979;50.800;4.904;2024-02-28T14:18:16;3.85;;;3.55;;
11839;SDS011;5979;50.800;4.904;2024-02-28T14:20:42;6.18;;;3.78;;
11839;SDS011;5979;50.800;4.904;2024-02-28T14:23:08;3.53;;;3.22;;
11839;SDS011;5979;50.800;4.904;2024-02-28T14:25:34;3.60;;;3.30;;
11839;SDS011;5979;50.800;4.904;2024-02-28T14:28:00;3.80;;;3.33;;
11839;SDS011;5979;50.800;4.904;2024-02-28T14:30:25;3.60;;;3.30;;
11839;SDS011;5979;50.800;4.904;2024-02-28T14:32:51;3.30;;;3.10;;
11839;SDS011;5979;50.800;4.904;2024-02-28T14:35:17;4.90;;;3.80;;
11839;SDS011;5979;50.800;4.904;2024-02-28T14:37:43;4.55;;;3.45;;